createdAt,value
2019-03-15T00:01:36.359Z,3.97
2019-03-15T00:04:04.928Z,4.23
2019-03-15T00:06:33.214Z,3.70
2019-03-15T00:09:02.686Z,4.03
2019-03-15T00:11:30.986Z,4.23
2019-03-15T00:13:59.549Z,4.47
2019-03-15T00:16:27.849Z,4.57
2019-03-15T00:18:56.132Z,4.20
2019-03-15T00:21:24.484Z,4.47
2019-03-15T00:23:52.764Z,3.97
2019-03-15T00:26:21.442Z,4.43
2019-03-15T00:28:49.789Z,4.73
2019-03-15T00:31:18.088Z,4.00
2019-03-15T00:33:46.679Z,3.87
2019-03-15T00:36:14.977Z,4.20
2019-03-15T00:38:43.267Z,3.50
2019-03-15T00:41:11.564Z,4.13
2019-03-15T00:43:39.849Z,3.63
2019-03-15T00:46:08.144Z,4.10
2019-03-15T00:48:36.419Z,4.27
2019-03-15T00:51:04.725Z,4.07
2019-03-15T00:53:33.016Z,5.03
2019-03-15T00:56:01.320Z,4.13
2019-03-15T00:58:29.632Z,4.37
2019-03-15T01:00:57.933Z,4.57
2019-03-15T01:03:26.218Z,3.87
2019-03-15T01:05:54.517Z,4.10
2019-03-15T01:08:22.798Z,4.20
2019-03-15T01:10:51.094Z,4.10
2019-03-15T01:13:19.377Z,3.47
2019-03-15T01:15:47.664Z,3.67
2019-03-15T01:18:15.939Z,3.57
2019-03-15T01:20:44.237Z,3.50
2019-03-15T01:23:12.520Z,3.77
2019-03-15T01:25:40.792Z,3.27
2019-03-15T01:28:09.088Z,3.37
2019-03-15T01:30:37.376Z,3.43
2019-03-15T01:33:05.671Z,3.47
2019-03-15T01:35:34.170Z,2.90
2019-03-15T01:38:02.431Z,3.10
2019-03-15T01:40:30.956Z,3.13
2019-03-15T01:42:59.318Z,3.50
2019-03-15T01:45:27.599Z,3.27
2019-03-15T01:47:55.898Z,3.13
2019-03-15T01:50:24.509Z,2.90
2019-03-15T01:52:52.959Z,3.37
2019-03-15T01:55:21.572Z,3.27
2019-03-15T01:57:49.874Z,3.17
2019-03-15T02:00:18.155Z,2.87
2019-03-15T02:02:46.451Z,2.60
2019-03-15T02:05:14.739Z,3.50
2019-03-15T02:07:43.036Z,3.43
2019-03-15T02:10:11.316Z,3.77
2019-03-15T02:12:39.624Z,3.10
2019-03-15T02:15:10.760Z,3.73
2019-03-15T02:17:39.086Z,2.97
2019-03-15T02:20:08.976Z,2.80
2019-03-15T02:22:37.406Z,3.10
2019-03-15T02:25:05.806Z,2.73
2019-03-15T02:27:34.173Z,3.10
2019-03-15T02:30:02.535Z,2.87
2019-03-15T02:32:30.801Z,2.90
2019-03-15T02:34:59.403Z,3.20
2019-03-15T02:37:27.689Z,2.57
2019-03-15T02:39:56.262Z,2.87
2019-03-15T02:42:26.194Z,3.00
2019-03-15T02:44:54.629Z,2.30
2019-03-15T02:47:22.900Z,2.33
2019-03-15T02:49:51.201Z,3.13
2019-03-15T02:52:19.495Z,2.93
2019-03-15T02:54:47.765Z,2.93
2019-03-15T02:57:16.338Z,2.20
2019-03-15T02:59:44.634Z,2.90
2019-03-15T03:02:12.912Z,2.70
2019-03-15T03:04:41.353Z,2.60
2019-03-15T03:07:09.949Z,2.50
2019-03-15T03:09:38.242Z,2.80
2019-03-15T03:12:06.533Z,3.13
2019-03-15T03:14:35.203Z,3.47
2019-03-15T03:17:03.484Z,2.50
2019-03-15T03:19:31.843Z,2.63
2019-03-15T03:22:00.452Z,3.47
2019-03-15T03:24:28.745Z,2.50
2019-03-15T03:26:57.009Z,2.70
2019-03-15T03:29:25.318Z,2.50
2019-03-15T03:31:53.866Z,2.93
2019-03-15T03:34:22.166Z,2.23
2019-03-15T03:36:50.701Z,2.70
2019-03-15T03:39:20.677Z,2.53
2019-03-15T03:41:48.961Z,2.50
2019-03-15T03:44:17.256Z,2.80
2019-03-15T03:46:45.534Z,2.73
2019-03-15T03:49:14.207Z,2.73
2019-03-15T03:51:42.429Z,2.57
2019-03-15T03:54:10.727Z,2.43
2019-03-15T03:56:39.008Z,2.80
2019-03-15T03:59:07.303Z,2.90
2019-03-15T04:01:35.655Z,2.70
2019-03-15T04:04:04.367Z,2.73
2019-03-15T04:06:32.605Z,2.70
2019-03-15T04:09:00.902Z,3.07
2019-03-15T04:11:29.178Z,2.57
2019-03-15T04:13:57.823Z,2.73
2019-03-15T04:16:26.414Z,3.67
2019-03-15T04:18:54.992Z,3.10
2019-03-15T04:21:23.574Z,3.50
2019-03-15T04:23:51.877Z,3.10
2019-03-15T04:26:20.442Z,3.00
2019-03-15T04:28:48.739Z,2.90
2019-03-15T04:31:17.176Z,3.40
2019-03-15T04:33:45.401Z,3.33
2019-03-15T04:36:13.951Z,3.27
2019-03-15T04:38:42.339Z,3.70
2019-03-15T04:41:10.609Z,3.03
2019-03-15T04:43:39.188Z,2.93
2019-03-15T04:46:07.460Z,3.17
2019-03-15T04:48:35.750Z,3.20
2019-03-15T04:51:04.030Z,3.23
2019-03-15T04:53:32.334Z,3.10
2019-03-15T04:56:00.604Z,3.10
2019-03-15T04:58:28.904Z,3.73
2019-03-15T05:00:57.554Z,3.50
2019-03-15T05:03:26.122Z,3.70
2019-03-15T05:06:03.262Z,3.10
2019-03-15T05:08:24.447Z,3.40
2019-03-15T05:10:52.744Z,3.47
2019-03-15T05:13:21.040Z,3.70
2019-03-15T05:15:49.327Z,4.27
2019-03-15T05:18:17.609Z,3.60
2019-03-15T05:20:46.233Z,4.07
2019-03-15T05:23:14.511Z,3.70
2019-03-15T05:25:42.818Z,3.77
2019-03-15T05:28:11.444Z,4.10
2019-03-15T05:30:39.745Z,3.77
2019-03-15T05:33:08.308Z,3.77
2019-03-15T05:35:36.635Z,3.87
2019-03-15T05:38:05.063Z,4.13
2019-03-15T05:40:39.341Z,3.63
2019-03-15T05:43:07.884Z,3.87
2019-03-15T05:45:36.188Z,3.90
2019-03-15T05:48:04.825Z,4.17
2019-03-15T05:50:33.125Z,3.90
2019-03-15T05:53:01.405Z,4.53
2019-03-15T05:55:29.707Z,4.20
2019-03-15T05:57:57.991Z,4.40
2019-03-15T06:00:26.302Z,4.43
2019-03-15T06:02:54.658Z,4.60
2019-03-15T06:05:23.269Z,4.40
2019-03-15T06:07:51.557Z,4.13
2019-03-15T06:10:19.933Z,4.03
2019-03-15T06:12:48.209Z,4.27
2019-03-15T06:15:19.255Z,4.57
2019-03-15T06:17:47.604Z,4.00
2019-03-15T06:20:16.213Z,4.27
2019-03-15T06:22:44.792Z,4.20
2019-03-15T06:25:13.094Z,4.83
2019-03-15T06:27:41.365Z,4.33
2019-03-15T06:30:12.175Z,4.57
2019-03-15T06:32:40.454Z,4.37
2019-03-15T06:35:09.067Z,4.50
2019-03-15T06:37:37.617Z,4.70
2019-03-15T06:40:08.821Z,4.63
2019-03-15T06:42:37.098Z,5.20
2019-03-15T06:45:10.462Z,4.33
2019-03-15T06:47:38.752Z,4.93
2019-03-15T06:50:08.385Z,4.57
2019-03-15T06:52:36.679Z,4.00
2019-03-15T06:55:07.206Z,4.50
2019-03-15T06:57:35.497Z,4.27
2019-03-15T07:00:05.223Z,4.47
2019-03-15T07:02:33.531Z,4.63
2019-03-15T07:05:02.074Z,4.80
2019-03-15T07:07:30.382Z,4.37
2019-03-15T07:09:58.942Z,4.57
2019-03-15T07:12:27.228Z,4.03
2019-03-15T07:14:55.797Z,4.23
2019-03-15T07:17:24.103Z,4.13
2019-03-15T07:19:52.395Z,3.57
2019-03-15T07:22:20.696Z,4.13
2019-03-15T07:24:48.981Z,3.73
2019-03-15T07:27:17.279Z,3.83
2019-03-15T07:29:45.558Z,4.30
2019-03-15T07:32:14.150Z,4.90
2019-03-15T07:34:42.423Z,5.37
2019-03-15T07:37:10.718Z,4.23
2019-03-15T07:39:39.001Z,4.20
2019-03-15T07:42:07.321Z,3.60
2019-03-15T07:44:35.586Z,3.97
2019-03-15T07:47:04.209Z,3.73
2019-03-15T07:49:32.509Z,3.60
2019-03-15T07:52:03.836Z,4.20
2019-03-15T07:54:38.067Z,4.50
2019-03-15T07:57:01.108Z,3.60
2019-03-15T07:59:29.395Z,3.63
2019-03-15T08:01:57.744Z,3.60
2019-03-15T08:04:26.031Z,4.03
2019-03-15T08:06:54.631Z,3.60
2019-03-15T08:09:22.933Z,4.87
2019-03-15T08:11:51.206Z,2.97
2019-03-15T08:14:19.770Z,3.53
2019-03-15T08:16:48.338Z,3.60
2019-03-15T08:19:16.633Z,3.87
2019-03-15T08:21:44.906Z,3.30
2019-03-15T08:24:13.482Z,4.63
2019-03-15T08:26:42.164Z,3.73
2019-03-15T08:29:10.505Z,3.80
2019-03-15T08:31:38.799Z,3.93
2019-03-15T08:34:07.075Z,3.63
2019-03-15T08:36:35.355Z,3.73
2019-03-15T08:39:04.984Z,3.57
2019-03-15T08:41:33.288Z,4.40
2019-03-15T08:44:01.568Z,3.73
2019-03-15T08:46:29.858Z,3.73
2019-03-15T08:48:58.394Z,3.80
2019-03-15T08:51:26.979Z,3.57
2019-03-15T08:53:55.257Z,3.40
2019-03-15T08:56:23.561Z,3.77
2019-03-15T08:58:51.837Z,3.90
2019-03-15T09:01:20.132Z,3.60
2019-03-15T09:03:48.417Z,3.70
2019-03-15T09:06:16.703Z,3.80
2019-03-15T09:08:45.323Z,3.70
2019-03-15T09:11:13.615Z,4.10
2019-03-15T09:13:41.896Z,3.90
2019-03-15T09:16:10.191Z,4.43
2019-03-15T09:18:38.740Z,4.00
2019-03-15T09:21:07.031Z,3.80
2019-03-15T09:23:35.309Z,4.03
2019-03-15T09:26:03.603Z,3.87
2019-03-15T09:28:31.893Z,4.07
2019-03-15T09:31:00.161Z,3.67
2019-03-15T09:33:28.447Z,3.70
2019-03-15T09:36:00.827Z,3.70
2019-03-15T09:38:29.117Z,2.80
2019-03-15T09:40:57.727Z,1.83
2019-03-15T09:43:26.024Z,1.70
2019-03-15T09:45:57.349Z,1.60
2019-03-15T09:48:26.239Z,1.80
2019-03-15T09:50:54.446Z,1.57
2019-03-15T09:53:22.730Z,1.30
2019-03-15T09:55:51.007Z,1.37
2019-03-15T09:58:19.572Z,1.40
2019-03-15T10:00:47.826Z,1.50
2019-03-15T10:03:21.953Z,1.37
2019-03-15T10:05:46.129Z,1.40
2019-03-15T10:08:14.714Z,1.67
2019-03-15T10:10:43.059Z,1.60
2019-03-15T10:13:11.675Z,1.83
2019-03-15T10:15:40.078Z,1.43
2019-03-15T10:18:08.437Z,1.50
2019-03-15T10:20:37.032Z,1.40
2019-03-15T10:23:06.547Z,1.30
2019-03-15T10:25:46.245Z,1.60
2019-03-15T10:28:05.308Z,1.43
2019-03-15T10:30:33.616Z,1.80
2019-03-15T10:33:02.124Z,2.07
2019-03-15T10:35:30.498Z,2.30
2019-03-15T10:37:58.771Z,2.20
2019-03-15T10:40:27.132Z,2.83
2019-03-15T10:42:55.913Z,3.10
2019-03-15T10:45:24.595Z,3.07
2019-03-15T10:47:52.936Z,2.13
2019-03-15T10:50:21.233Z,2.57
2019-03-15T10:52:49.516Z,2.70
2019-03-15T10:55:20.573Z,2.87
2019-03-15T10:57:47.804Z,2.87
2019-03-15T11:00:17.803Z,2.93
2019-03-15T11:02:51.803Z,2.70
2019-03-15T11:05:20.095Z,2.40
2019-03-15T11:07:48.710Z,2.77
2019-03-15T11:10:17.069Z,2.37
2019-03-15T11:12:45.337Z,2.63
2019-03-15T11:15:16.724Z,2.30
2019-03-15T11:17:45.314Z,2.67
2019-03-15T11:20:13.875Z,2.70
2019-03-15T11:22:42.246Z,2.00
2019-03-15T11:25:11.577Z,1.83
2019-03-15T11:27:39.914Z,2.23
2019-03-15T11:30:14.927Z,2.33
2019-03-15T11:32:43.130Z,2.03
2019-03-15T11:35:12.279Z,2.50
2019-03-15T11:37:40.637Z,2.30
2019-03-15T11:40:14.166Z,2.10
2019-03-15T11:42:42.795Z,3.00
2019-03-15T11:45:15.561Z,2.10
2019-03-15T11:48:02.099Z,3.07
2019-03-15T11:50:15.405Z,2.63
2019-03-15T11:52:44.004Z,2.97
2019-03-15T11:55:12.290Z,2.83
2019-03-15T11:57:40.597Z,2.73
2019-03-15T12:00:16.409Z,3.00
2019-03-15T12:02:44.773Z,2.73
2019-03-15T12:05:13.317Z,2.50
2019-03-15T12:07:41.612Z,2.53
2019-03-15T12:10:17.198Z,2.83
2019-03-15T12:12:45.775Z,2.83
2019-03-15T12:15:21.075Z,2.77
2019-03-15T12:17:49.712Z,2.60
2019-03-15T12:20:18.047Z,2.73
2019-03-15T12:22:46.661Z,3.07
2019-03-15T12:25:14.966Z,2.63
2019-03-15T12:27:43.522Z,2.80
2019-03-15T12:30:16.981Z,3.00
2019-03-15T12:32:45.334Z,3.13
2019-03-15T12:35:14.483Z,2.93
2019-03-15T12:37:42.823Z,3.23
2019-03-15T12:40:13.834Z,2.67
2019-03-15T12:42:42.178Z,2.83
2019-03-15T12:45:14.668Z,2.33
2019-03-15T12:47:42.964Z,3.13
2019-03-15T12:50:13.296Z,3.00
2019-03-15T12:52:47.749Z,3.33
2019-03-15T12:55:12.903Z,2.33
2019-03-15T12:57:41.245Z,3.33
2019-03-15T13:00:17.337Z,2.63
2019-03-15T13:02:45.613Z,2.83
2019-03-15T13:05:13.903Z,2.77
2019-03-15T13:07:42.577Z,2.90
2019-03-15T13:10:13.776Z,2.40
2019-03-15T13:12:42.056Z,2.70
2019-03-15T13:15:15.307Z,2.87
2019-03-15T13:17:43.849Z,2.70
2019-03-15T13:20:16.221Z,3.10
2019-03-15T13:22:44.498Z,2.47
2019-03-15T13:25:13.173Z,2.80
2019-03-15T13:27:41.463Z,2.80
2019-03-15T13:30:13.905Z,2.53
2019-03-15T13:32:44.218Z,2.57
2019-03-15T13:35:12.740Z,3.17
2019-03-15T13:37:42.671Z,2.33
2019-03-15T13:40:13.620Z,2.53
2019-03-15T13:42:42.194Z,2.60
2019-03-15T13:45:12.273Z,3.07
2019-03-15T13:47:40.921Z,2.67
2019-03-15T13:50:17.624Z,2.47
2019-03-15T13:52:45.943Z,2.90
2019-03-15T13:55:14.228Z,2.60
2019-03-15T13:57:42.920Z,2.70
2019-03-15T14:00:16.165Z,2.30
2019-03-15T14:02:44.447Z,2.43
2019-03-15T14:05:13.079Z,3.00
2019-03-15T14:07:41.366Z,2.73
2019-03-15T14:10:12.807Z,2.63
2019-03-15T14:12:41.099Z,2.53
2019-03-15T14:15:12.847Z,2.30
2019-03-15T14:17:41.424Z,2.33
2019-03-15T14:20:11.379Z,2.73
2019-03-15T14:22:39.728Z,2.30
2019-03-15T14:25:17.432Z,2.50
2019-03-15T14:27:46.201Z,2.47
2019-03-15T14:30:15.174Z,2.60
2019-03-15T14:32:43.444Z,2.87
2019-03-15T14:35:11.737Z,2.53
2019-03-15T14:37:40.303Z,2.77
2019-03-15T14:40:10.807Z,2.57
2019-03-15T14:42:39.089Z,2.27
2019-03-15T14:45:10.619Z,2.20
2019-03-15T14:47:38.926Z,2.47
2019-03-15T14:50:09.314Z,2.23
2019-03-15T14:52:37.889Z,2.23
2019-03-15T14:55:11.253Z,2.37
2019-03-15T14:57:51.062Z,2.10
2019-03-15T15:00:16.730Z,2.13
2019-03-15T15:02:45.024Z,2.10
2019-03-15T15:05:13.363Z,2.30
2019-03-15T15:07:41.652Z,2.30
2019-03-15T15:10:12.433Z,2.40
2019-03-15T15:12:41.047Z,2.50
2019-03-15T15:15:11.768Z,2.17
2019-03-15T15:17:40.194Z,2.50
2019-03-15T15:20:10.114Z,2.30
2019-03-15T15:22:38.488Z,2.20
2019-03-15T15:25:12.539Z,2.30
2019-03-15T15:27:40.937Z,2.30
2019-03-15T15:30:15.012Z,2.10
2019-03-15T15:32:43.359Z,2.60
2019-03-15T15:35:12.395Z,2.43
2019-03-15T15:37:40.680Z,2.57
2019-03-15T15:40:17.212Z,3.00
2019-03-15T15:42:45.502Z,2.70
2019-03-15T15:45:13.926Z,2.13
2019-03-15T15:47:42.202Z,2.77
2019-03-15T15:50:15.298Z,2.57
2019-03-15T15:52:43.846Z,2.40
2019-03-15T15:55:13.477Z,2.10
2019-03-15T15:57:41.844Z,2.23
2019-03-15T16:00:20.928Z,2.10
2019-03-15T16:02:49.219Z,2.93
2019-03-15T16:05:17.508Z,2.13
2019-03-15T16:07:45.792Z,2.50
2019-03-15T16:10:17.966Z,2.30
2019-03-15T16:12:45.410Z,2.10
2019-03-15T16:15:16.282Z,2.33
2019-03-15T16:17:45.599Z,2.50
2019-03-15T16:20:14.512Z,2.43
2019-03-15T16:22:42.881Z,2.07
2019-03-15T16:25:11.700Z,2.00
2019-03-15T16:27:40.003Z,1.97
2019-03-15T16:30:16.132Z,2.20
2019-03-15T16:32:44.439Z,2.00
2019-03-15T16:35:13.649Z,1.90
2019-03-15T16:37:42.279Z,1.73
2019-03-15T16:40:15.440Z,1.83
2019-03-15T16:42:43.818Z,2.13
2019-03-15T16:45:23.252Z,1.73
2019-03-15T16:47:51.601Z,1.40
2019-03-15T16:50:19.946Z,1.20
2019-03-15T16:52:48.247Z,1.30
2019-03-15T16:55:16.516Z,1.33
2019-03-15T16:57:44.809Z,1.00
2019-03-15T17:00:14.345Z,1.27
2019-03-15T17:02:42.969Z,1.37
2019-03-15T17:05:12.297Z,1.50
2019-03-15T17:07:40.712Z,1.80
2019-03-15T17:10:19.316Z,1.40
2019-03-15T17:12:47.592Z,1.70
2019-03-15T17:15:23.725Z,1.67
2019-03-15T17:17:51.997Z,2.13
2019-03-15T17:20:20.566Z,1.60
2019-03-15T17:22:48.895Z,1.40
2019-03-15T17:25:17.141Z,1.30
2019-03-15T17:27:45.800Z,1.57
2019-03-15T17:30:16.108Z,1.80
2019-03-15T17:32:44.466Z,1.50
2019-03-15T17:35:14.423Z,1.67
2019-03-15T17:37:42.884Z,2.20
2019-03-15T17:40:13.099Z,1.70
2019-03-15T17:42:41.381Z,1.47
2019-03-15T17:45:10.311Z,1.50
2019-03-15T17:47:38.859Z,1.57
2019-03-15T17:50:21.377Z,1.60
2019-03-15T17:52:49.739Z,1.70
2019-03-15T17:55:18.086Z,1.70
2019-03-15T17:57:50.927Z,1.70
2019-03-15T18:00:32.403Z,1.83
2019-03-15T18:03:01.032Z,2.00
2019-03-15T18:05:29.309Z,2.10
2019-03-15T18:07:57.601Z,2.20
2019-03-15T18:10:25.954Z,2.00
2019-03-15T18:12:54.531Z,2.23
2019-03-15T18:15:22.800Z,2.30
2019-03-15T18:17:51.160Z,2.40
2019-03-15T18:20:19.447Z,2.10
2019-03-15T18:22:47.748Z,2.10
2019-03-15T18:25:16.097Z,2.00
2019-03-15T18:27:44.786Z,1.40
2019-03-15T18:30:15.669Z,2.10
2019-03-15T18:32:44.034Z,2.00
2019-03-15T18:35:12.482Z,1.90
2019-03-15T18:37:40.797Z,2.50
2019-03-15T18:40:14.744Z,2.13
2019-03-15T18:42:43.123Z,2.33
2019-03-15T18:45:16.236Z,2.17
2019-03-15T18:47:44.916Z,1.57
2019-03-15T18:50:24.045Z,1.57
2019-03-15T18:52:52.416Z,2.07
2019-03-15T18:55:20.709Z,2.00
2019-03-15T18:57:49.075Z,1.93
2019-03-15T19:00:21.070Z,1.73
2019-03-15T19:02:49.322Z,1.70
2019-03-15T19:05:17.910Z,1.50
2019-03-15T19:07:46.287Z,1.40
2019-03-15T19:10:15.788Z,1.67
2019-03-15T19:12:44.166Z,1.47
2019-03-15T19:15:16.212Z,1.80
2019-03-15T19:17:45.733Z,2.73
2019-03-15T19:20:15.211Z,2.70
2019-03-15T19:22:43.566Z,1.90
2019-03-15T19:25:12.507Z,2.13
2019-03-15T19:27:41.068Z,1.77
2019-03-15T19:30:16.784Z,1.73
2019-03-15T19:32:45.332Z,1.90
2019-03-15T19:35:13.916Z,1.83
2019-03-15T19:37:42.199Z,2.07
2019-03-15T19:40:17.329Z,1.97
2019-03-15T19:42:45.979Z,2.17
2019-03-15T19:45:16.366Z,2.00
2019-03-15T19:47:44.730Z,1.70
2019-03-15T19:50:15.226Z,2.10
2019-03-15T19:52:44.080Z,2.50
2019-03-15T19:55:14.293Z,2.97
2019-03-15T19:57:42.575Z,2.53
2019-03-15T20:00:15.940Z,3.37
2019-03-15T20:02:44.218Z,2.73
2019-03-15T20:05:12.905Z,2.83
2019-03-15T20:07:41.302Z,2.47
2019-03-15T20:10:16.533Z,2.37
2019-03-15T20:12:43.880Z,2.60
2019-03-15T20:15:14.192Z,2.63
2019-03-15T20:17:42.882Z,2.90
2019-03-15T20:20:13.853Z,2.50
2019-03-15T20:22:42.120Z,2.53
2019-03-15T20:25:12.507Z,2.60
2019-03-15T20:27:40.801Z,3.00
2019-03-15T20:30:25.580Z,2.97
2019-03-15T20:32:50.527Z,2.63
2019-03-15T20:35:18.809Z,2.47
2019-03-15T20:37:47.105Z,2.63
2019-03-15T20:40:15.620Z,2.43
2019-03-15T20:42:45.580Z,3.07
2019-03-15T20:45:31.972Z,3.03
2019-03-15T20:48:00.721Z,2.10
2019-03-15T20:50:29.015Z,2.80
2019-03-15T20:53:07.875Z,3.17
2019-03-15T20:55:28.981Z,2.20
2019-03-15T20:57:57.513Z,2.83
2019-03-15T21:00:35.369Z,2.47
2019-03-15T21:02:55.824Z,2.70
2019-03-15T21:05:24.380Z,2.93
2019-03-15T21:07:53.041Z,3.37
2019-03-15T21:10:21.405Z,3.30
2019-03-15T21:12:50.017Z,2.80
2019-03-15T21:15:18.303Z,2.50
2019-03-15T21:17:46.581Z,2.73
2019-03-15T21:20:17.402Z,2.83
2019-03-15T21:22:45.767Z,3.10
2019-03-15T21:25:14.120Z,3.40
2019-03-15T21:27:52.972Z,2.83
2019-03-15T21:30:15.278Z,2.83
2019-03-15T21:32:43.910Z,2.57
2019-03-15T21:35:12.466Z,3.10
2019-03-15T21:37:41.117Z,3.17
2019-03-15T21:40:11.611Z,3.53
2019-03-15T21:42:40.296Z,3.37
2019-03-15T21:45:10.242Z,3.77
2019-03-15T21:47:38.531Z,3.93
2019-03-15T21:50:15.613Z,3.67
2019-03-15T21:52:43.943Z,3.87
2019-03-15T21:55:12.245Z,4.27
2019-03-15T21:57:40.520Z,3.40
2019-03-15T22:00:19.574Z,3.73
2019-03-15T22:02:47.849Z,3.63
2019-03-15T22:05:16.152Z,3.80
2019-03-15T22:07:44.430Z,4.00
2019-03-15T22:10:13.793Z,3.30
2019-03-15T22:12:42.073Z,3.53
2019-03-15T22:15:11.569Z,3.17
2019-03-15T22:17:40.204Z,3.57
2019-03-15T22:20:16.797Z,15.23
2019-03-15T22:22:45.180Z,3.73
2019-03-15T22:25:14.990Z,3.50
2019-03-15T22:27:43.377Z,3.33
2019-03-15T22:30:15.541Z,3.27
2019-03-15T22:32:43.838Z,3.87
2019-03-15T22:35:13.857Z,3.10
2019-03-15T22:37:42.152Z,3.57
2019-03-15T22:40:14.011Z,3.63
2019-03-15T22:42:42.383Z,3.60
2019-03-15T22:45:12.248Z,3.57
2019-03-15T22:47:40.565Z,3.47
2019-03-15T22:50:10.285Z,3.50
2019-03-15T22:52:38.565Z,3.83
2019-03-15T22:55:10.857Z,3.67
2019-03-15T22:57:39.139Z,4.40
2019-03-15T23:00:13.321Z,3.57
2019-03-15T23:02:41.634Z,4.07
2019-03-15T23:05:10.450Z,3.53
2019-03-15T23:07:38.738Z,3.87
2019-03-15T23:10:09.465Z,3.30
2019-03-15T23:12:38.048Z,4.20
2019-03-15T23:15:08.321Z,4.10
2019-03-15T23:17:36.694Z,3.93
2019-03-15T23:20:07.336Z,4.00
2019-03-15T23:22:35.622Z,3.87
2019-03-15T23:25:05.578Z,3.80
2019-03-15T23:27:33.869Z,4.30
2019-03-15T23:30:02.147Z,4.10
2019-03-15T23:32:30.431Z,4.00
2019-03-15T23:34:58.753Z,3.73
2019-03-15T23:37:27.038Z,4.03
2019-03-15T23:39:55.320Z,4.07
2019-03-15T23:42:23.619Z,3.50
2019-03-15T23:44:51.916Z,3.50
2019-03-15T23:47:20.222Z,3.77
2019-03-15T23:49:48.515Z,4.10
2019-03-15T23:52:17.134Z,4.80
2019-03-15T23:54:45.422Z,4.13
2019-03-15T23:57:13.808Z,4.03
2019-03-15T23:59:42.377Z,3.77
